Lutcher, Louisiana
Current Conditions -  °F | °C
As of 6:35 PM on Monday 24 Nov 2014 (Local Time) from K1L0 Reporting Station
Clear Clear  
Wind Chill: 61°   Ceiling: Unl
Heat Index: 61°   Visibility: 10mi
Dew Point: 46°   Wind: 8mph
Humidity: 58%   Direction: 350°N
Pressure: 29.99"   Gusts: NA
Location:  30.04°N, 90.7°W
Report Text: K1L0 250035Z AUTO 35007KT 10SM CLR 16/08 A2999 RMK AO2 LTG DSNT E T01610078
Loading
Personal Weather Stations






























Interactive Weather Map New forecast layout! Learn more

10-Day Weather Forecast

Advertisements
Track Severe Weather on mobile